Time;durP1;ratioP1;P1;durP2;ratioP2;P2;SDS_P1;SDS_P2;PMS_P1;PMS_P2;Temp;Humidity;BMP_temperature;BMP_pressure;BME280_temperature;BME280_humidity;BME280_pressure;Samples;Min_cycle;Max_cycle;Signal;HPM_P1;HPM_P2
2021/04/29 00:00:14;;;;;;;26.75;11.20;;;13.90;99.90;;;;;;5018964;28;20103;-63
2021/04/29 00:02:42;;;;;;;26.67;12.52;;;13.90;99.90;;;;;;5029367;28;20113;-63
2021/04/29 00:05:15;;;;;;;31.73;13.55;;;13.90;99.90;;;;;;5033461;28;20069;-63
2021/04/29 00:07:42;;;;;;;25.48;12.50;;;14.00;99.90;;;;;;5019755;28;20041;-63
2021/04/29 00:10:13;;;;;;;23.75;12.45;;;13.90;99.90;;;;;;5030800;28;20427;-63
2021/04/29 00:12:40;;;;;;;28.20;12.52;;;13.90;99.90;;;;;;5027626;28;20037;-63
2021/04/29 00:15:12;;;;;;;28.52;12.50;;;13.90;99.90;;;;;;5031277;28;20041;-63
2021/04/29 00:17:40;;;;;;;24.02;11.88;;;13.90;99.90;;;;;;5027180;28;20152;-63
2021/04/29 00:20:19;;;;;;;26.40;13.85;;;13.80;99.90;;;;;;5029565;28;20045;-63
2021/04/29 00:22:46;;;;;;;33.45;14.57;;;13.90;99.90;;;;;;5022422;28;20050;-63
2021/04/29 00:25:14;;;;;;;28.80;13.35;;;13.80;99.90;;;;;;5028819;28;20049;-63
2021/04/29 00:27:41;;;;;;;30.50;13.38;;;13.90;99.90;;;;;;5021726;28;20049;-63
2021/04/29 00:30:09;;;;;;;30.92;14.32;;;13.80;99.90;;;;;;5028190;28;20045;-63
2021/04/29 00:32:36;;;;;;;31.10;15.20;;;13.80;99.90;;;;;;5025294;28;20049;-63
2021/04/29 00:35:05;;;;;;;30.75;13.45;;;13.80;99.90;;;;;;5024110;28;20543;-63
2021/04/29 00:37:31;;;;;;;31.40;14.63;;;13.70;99.90;;;;;;5028606;28;20468;-63
2021/04/29 00:39:58;;;;;;;34.55;13.43;;;13.60;99.90;;;;;;5032425;28;20103;-63
2021/04/29 00:42:24;;;;;;;32.63;14.77;;;13.70;99.90;;;;;;5039760;28;20041;-63
2021/04/29 00:44:51;;;;;;;33.20;15.07;;;13.70;99.90;;;;;;5032000;28;20640;-63
2021/04/29 00:47:17;;;;;;;34.70;15.13;;;13.60;99.90;;;;;;5029801;28;20094;-63
2021/04/29 00:49:45;;;;;;;36.35;15.85;;;13.50;99.90;;;;;;5034610;28;20030;-63
2021/04/29 00:52:12;;;;;;;32.92;15.82;;;13.50;99.90;;;;;;5023072;28;20439;-63
2021/04/29 00:54:39;;;;;;;36.17;15.85;;;13.60;99.90;;;;;;5034123;28;20037;-63
2021/04/29 00:57:05;;;;;;;36.30;16.40;;;13.50;99.90;;;;;;5037271;28;20037;-63
2021/04/29 00:59:32;;;;;;;35.80;16.48;;;13.60;99.90;;;;;;5039543;28;20088;-63
2021/04/29 01:02:02;;;;;;;38.42;16.67;;;13.60;99.90;;;;;;5034189;28;20041;-63
2021/04/29 01:04:41;;;;;;;37.55;16.30;;;13.70;99.90;;;;;;5031048;28;20041;-63
2021/04/29 01:07:12;;;;;;;36.65;15.27;;;13.60;99.90;;;;;;5034899;28;20045;-63
2021/04/29 01:09:41;;;;;;;41.17;16.73;;;13.60;99.90;;;;;;5033154;28;20156;-63
2021/04/29 01:12:23;;;;;;;35.10;16.33;;;13.50;99.90;;;;;;5032346;28;20037;-63
2021/04/29 01:14:52;;;;;;;40.78;16.77;;;13.60;99.90;;;;;;5043595;28;20049;-63
2021/04/29 01:17:19;;;;;;;39.75;16.77;;;13.60;99.90;;;;;;5031273;28;20042;-63
2021/04/29 01:19:54;;;;;;;40.17;17.95;;;13.70;99.90;;;;;;5035994;28;20041;-63
2021/04/29 01:22:21;;;;;;;36.95;16.38;;;13.70;99.90;;;;;;5027884;28;20033;-63
2021/04/29 01:25:15;;;;;;;43.85;17.13;;;13.70;99.90;;;;;;5016871;28;20099;-63
2021/04/29 01:27:43;;;;;;;38.50;17.50;;;13.70;99.90;;;;;;5031862;28;20124;-63
2021/04/29 01:30:12;;;;;;;44.08;18.20;;;13.60;99.90;;;;;;5033027;28;20103;-63
2021/04/29 01:32:40;;;;;;;45.50;18.83;;;13.60;99.90;;;;;;5028459;28;20042;-63
2021/04/29 01:35:08;;;;;;;51.20;19.98;;;13.60;99.90;;;;;;5029339;28;20139;-63
2021/04/29 01:37:37;;;;;;;43.72;17.67;;;13.50;99.90;;;;;;5032682;28;20042;-63
2021/04/29 01:40:06;;;;;;;45.92;18.90;;;13.50;99.90;;;;;;5031695;28;20053;-63
2021/04/29 01:42:36;;;;;;;43.78;18.42;;;13.50;99.90;;;;;;5031586;28;20586;-63
2021/04/29 01:45:05;;;;;;;43.83;16.85;;;13.40;99.90;;;;;;5032850;28;20037;-63
2021/04/29 01:47:33;;;;;;;45.30;18.45;;;13.40;99.90;;;;;;5014370;28;20519;-63
2021/04/29 01:50:04;;;;;;;44.22;18.98;;;13.50;99.90;;;;;;5029571;28;20046;-63
2021/04/29 01:52:31;;;;;;;42.03;18.48;;;13.40;99.90;;;;;;5014301;28;20120;-62
2021/04/29 01:54:59;;;;;;;49.05;19.55;;;13.50;99.90;;;;;;5030627;28;20046;-62
2021/04/29 01:57:25;;;;;;;45.97;19.40;;;13.40;99.90;;;;;;5041923;28;20038;-62
2021/04/29 01:59:52;;;;;;;44.92;18.52;;;13.40;99.90;;;;;;5025664;28;20038;-62
2021/04/29 02:02:18;;;;;;;45.10;18.73;;;13.40;99.90;;;;;;5029425;28;20046;-63
2021/04/29 02:04:45;;;;;;;46.08;19.52;;;13.40;99.90;;;;;;5044623;28;20041;-63
2021/04/29 02:07:12;;;;;;;48.42;20.42;;;13.40;99.90;;;;;;5031946;28;20041;-63
2021/04/29 02:09:38;;;;;;;45.47;18.60;;;13.40;99.90;;;;;;5032895;28;20065;-63
2021/04/29 02:12:05;;;;;;;51.50;19.45;;;13.30;99.90;;;;;;5033506;28;20108;-63
2021/04/29 02:14:40;;;;;;;47.22;18.40;;;13.30;99.90;;;;;;5030324;28;20507;-63
2021/04/29 02:17:13;;;;;;;52.08;19.15;;;13.30;99.90;;;;;;5028053;28;20393;-63
2021/04/29 02:19:42;;;;;;;54.03;20.15;;;13.30;99.90;;;;;;5028271;28;20040;-63
2021/04/29 02:22:11;;;;;;;60.95;20.70;;;13.30;99.90;;;;;;5032895;28;20033;-63
2021/04/29 02:24:38;;;;;;;54.20;21.08;;;13.30;99.90;;;;;;5015438;28;20528;-63
2021/04/29 02:27:05;;;;;;;55.95;20.63;;;13.30;99.90;;;;;;5030241;28;20484;-63
2021/04/29 02:29:32;;;;;;;53.90;21.42;;;13.30;99.90;;;;;;5027379;28;20104;-63
2021/04/29 02:31:58;;;;;;;57.25;22.10;;;13.30;99.90;;;;;;5030880;28;20866;-63
2021/04/29 02:34:26;;;;;;;63.13;21.80;;;13.20;99.90;;;;;;5028699;28;20581;-63
2021/04/29 02:36:53;;;;;;;54.40;20.17;;;13.20;99.90;;;;;;5045127;28;20045;-63
2021/04/29 02:39:20;;;;;;;57.92;22.88;;;13.20;99.90;;;;;;5031774;28;20098;-63
2021/04/29 02:41:46;;;;;;;55.65;20.63;;;13.20;99.90;;;;;;5031934;28;20038;-63
2021/04/29 02:44:13;;;;;;;62.03;23.52;;;13.20;99.90;;;;;;5030355;28;20038;-63
2021/04/29 02:46:41;;;;;;;59.75;23.02;;;13.20;99.90;;;;;;5032301;28;20038;-63
2021/04/29 02:49:08;;;;;;;62.92;23.98;;;13.20;99.90;;;;;;5030967;28;20049;-63
2021/04/29 02:51:37;;;;;;;60.53;21.88;;;13.20;99.90;;;;;;5034007;28;20053;-63
2021/04/29 02:54:07;;;;;;;58.38;22.92;;;13.20;99.90;;;;;;5029504;28;20049;-63
2021/04/29 02:56:39;;;;;;;59.80;21.58;;;13.20;99.90;;;;;;5033215;28;20481;-63
2021/04/29 02:59:06;;;;;;;55.83;22.40;;;13.20;99.90;;;;;;5023012;28;20041;-63
2021/04/29 03:01:36;;;;;;;51.28;20.63;;;13.20;99.90;;;;;;5027332;28;20045;-63
2021/04/29 03:04:04;;;;;;;59.08;23.30;;;13.20;99.90;;;;;;5034986;28;20518;-63
2021/04/29 03:06:31;;;;;;;55.20;22.02;;;13.10;99.90;;;;;;5035041;28;20633;-63
2021/04/29 03:08:57;;;;;;;57.35;21.45;;;13.10;99.90;;;;;;5045288;28;20041;-63
2021/04/29 03:11:24;;;;;;;58.28;22.63;;;13.10;99.90;;;;;;5032061;28;20120;-63
2021/04/29 03:13:50;;;;;;;53.25;20.85;;;13.20;99.90;;;;;;5031696;28;20037;-63
2021/04/29 03:16:17;;;;;;;56.70;21.55;;;13.20;99.90;;;;;;5030149;28;20107;-63
2021/04/29 03:18:43;;;;;;;49.83;19.87;;;13.20;99.90;;;;;;5023729;28;20579;-63
2021/04/29 03:21:11;;;;;;;49.90;20.88;;;13.10;99.90;;;;;;5029538;28;20037;-63
2021/04/29 03:23:38;;;;;;;51.90;20.95;;;13.10;99.90;;;;;;5029226;28;20052;-63
2021/04/29 03:26:05;;;;;;;50.42;19.40;;;13.10;99.90;;;;;;5030005;28;20048;-63
2021/04/29 03:28:31;;;;;;;49.40;20.80;;;13.10;99.90;;;;;;5030011;28;20037;-63
2021/04/29 03:30:58;;;;;;;50.35;19.15;;;13.10;99.90;;;;;;5028989;28;20064;-63
2021/04/29 03:33:24;;;;;;;52.92;20.45;;;13.10;99.90;;;;;;5029288;28;20139;-63
2021/04/29 03:35:51;;;;;;;47.63;19.73;;;13.10;99.90;;;;;;5013268;28;20496;-63
2021/04/29 03:38:19;;;;;;;48.35;19.80;;;13.10;99.90;;;;;;5037356;28;20400;-63
2021/04/29 03:40:45;;;;;;;52.08;20.67;;;13.10;99.90;;;;;;5032399;28;20116;-63
2021/04/29 03:43:12;;;;;;;50.83;20.58;;;13.20;99.90;;;;;;5028681;28;20469;-63
2021/04/29 03:45:38;;;;;;;48.38;21.23;;;13.10;99.90;;;;;;5031296;28;20484;-63
2021/04/29 03:48:09;;;;;;;54.20;20.85;;;13.10;99.90;;;;;;5021247;28;20056;-62
2021/04/29 03:50:35;;;;;;;53.67;20.27;;;13.10;99.90;;;;;;5029817;28;20072;-62
2021/04/29 03:53:02;;;;;;;56.30;20.85;;;13.00;99.90;;;;;;5029268;28;20100;-62
2021/04/29 03:55:29;;;;;;;52.65;19.92;;;13.00;99.90;;;;;;5026541;28;20508;-62
2021/04/29 03:57:56;;;;;;;53.58;20.08;;;13.00;99.90;;;;;;5011848;28;20136;-62
2021/04/29 04:00:22;;;;;;;47.97;19.30;;;13.00;99.90;;;;;;5022728;28;20034;-62
2021/04/29 04:02:49;;;;;;;52.90;19.35;;;13.00;99.90;;;;;;5028308;28;20041;-62
2021/04/29 04:05:15;;;;;;;51.92;18.48;;;13.00;99.90;;;;;;5021454;28;20073;-62
2021/04/29 04:07:42;;;;;;;50.20;18.85;;;12.90;99.90;;;;;;5030307;28;20041;-63
2021/04/29 04:10:09;;;;;;;44.97;17.35;;;12.80;99.90;;;;;;5029116;28;20361;-63
2021/04/29 04:12:36;;;;;;;42.40;17.98;;;12.70;99.90;;;;;;5032579;28;20499;-63
2021/04/29 04:15:03;;;;;;;48.00;18.05;;;12.70;99.90;;;;;;5029494;28;20049;-64
2021/04/29 04:17:30;;;;;;;49.00;19.20;;;12.80;99.90;;;;;;5037317;28;20472;-63
2021/04/29 04:20:17;;;;;;;49.80;17.95;;;12.80;99.90;;;;;;5042612;28;20140;-63
2021/04/29 04:22:43;;;;;;;46.55;16.98;;;12.80;99.90;;;;;;5032306;28;20057;-63
2021/04/29 04:25:10;;;;;;;49.50;18.67;;;12.80;99.90;;;;;;5025836;28;20488;-63
2021/04/29 04:27:36;;;;;;;45.75;17.83;;;12.70;99.90;;;;;;5028201;28;20042;-63
2021/04/29 04:30:05;;;;;;;40.38;16.13;;;12.80;99.90;;;;;;5028409;28;20440;-63
2021/04/29 04:32:31;;;;;;;44.78;16.00;;;12.80;99.90;;;;;;5033093;28;20045;-63
2021/04/29 04:35:00;;;;;;;44.05;16.63;;;12.90;99.90;;;;;;5029555;28;20052;-63
2021/04/29 04:37:28;;;;;;;46.33;16.55;;;12.80;99.90;;;;;;5030406;28;20477;-63
2021/04/29 04:39:54;;;;;;;43.97;17.10;;;12.70;99.90;;;;;;5018235;28;20045;-63
2021/04/29 04:42:21;;;;;;;43.50;16.63;;;12.70;99.90;;;;;;5028598;28;20037;-63
2021/04/29 04:44:47;;;;;;;43.75;17.30;;;12.70;99.90;;;;;;4999933;28;20061;-63
2021/04/29 04:47:14;;;;;;;43.20;16.88;;;12.60;99.90;;;;;;5033756;28;20033;-62
2021/04/29 04:49:41;;;;;;;42.97;15.63;;;12.60;99.90;;;;;;5036651;28;20507;-62
2021/04/29 04:52:07;;;;;;;44.95;16.17;;;12.60;99.90;;;;;;5027462;28;20045;-63
2021/04/29 04:54:35;;;;;;;44.10;16.33;;;12.50;99.90;;;;;;5029007;28;20745;-63
2021/04/29 04:57:01;;;;;;;39.97;15.32;;;12.60;99.90;;;;;;5043976;28;20046;-63
2021/04/29 04:59:29;;;;;;;52.22;17.42;;;12.60;99.90;;;;;;5029022;28;20551;-63
2021/04/29 05:01:55;;;;;;;41.72;16.25;;;12.60;99.90;;;;;;5029915;28;20041;-62
2021/04/29 05:04:27;;;;;;;42.17;15.60;;;12.60;99.90;;;;;;5030896;28;20034;-62
2021/04/29 05:06:54;;;;;;;51.00;17.67;;;12.50;99.90;;;;;;5029435;28;20065;-63
2021/04/29 05:09:21;;;;;;;43.88;15.88;;;12.60;99.90;;;;;;5025011;28;20046;-63
2021/04/29 05:11:48;;;;;;;44.03;16.52;;;12.60;99.90;;;;;;5029078;28;20053;-63
2021/04/29 05:14:15;;;;;;;43.53;16.67;;;12.70;99.90;;;;;;5038962;28;20041;-63
2021/04/29 05:16:43;;;;;;;45.00;16.80;;;12.80;99.90;;;;;;5032353;28;20049;-63
2021/04/29 05:19:11;;;;;;;46.53;16.88;;;12.80;99.90;;;;;;5035942;28;20060;-62
2021/04/29 05:21:38;;;;;;;43.65;16.92;;;12.80;99.90;;;;;;5037815;28;20068;-63
2021/04/29 05:24:05;;;;;;;49.15;15.75;;;12.70;99.90;;;;;;5028284;28;20037;-63
2021/04/29 05:26:32;;;;;;;42.42;17.75;;;12.80;99.90;;;;;;5027549;28;20121;-63
2021/04/29 05:28:58;;;;;;;44.95;16.55;;;12.80;99.90;;;;;;5045260;28;20045;-62
2021/04/29 05:31:25;;;;;;;47.17;16.17;;;12.80;99.90;;;;;;5029962;28;20041;-62
2021/04/29 05:33:52;;;;;;;41.78;16.42;;;12.80;99.90;;;;;;5031301;28;20435;-63
2021/04/29 05:36:18;;;;;;;41.30;17.02;;;12.80;99.90;;;;;;5032498;28;20091;-63
2021/04/29 05:38:45;;;;;;;42.83;15.30;;;12.90;99.90;;;;;;5031689;28;20061;-63
2021/04/29 05:41:11;;;;;;;38.58;14.55;;;13.00;99.90;;;;;;5031570;28;20049;-63
2021/04/29 05:43:38;;;;;;;39.17;14.82;;;13.00;99.90;;;;;;5023433;28;20102;-63
2021/04/29 05:46:04;;;;;;;44.10;17.13;;;13.00;99.90;;;;;;5037048;28;20049;-63
2021/04/29 05:48:32;;;;;;;38.55;15.73;;;13.10;99.90;;;;;;5041353;28;20034;-63
2021/04/29 05:50:59;;;;;;;48.55;19.08;;;13.10;99.90;;;;;;5030059;28;20037;-63
2021/04/29 05:53:25;;;;;;;47.45;17.10;;;13.20;99.90;;;;;;5012389;28;20046;-63
2021/04/29 05:55:52;;;;;;;39.45;17.75;;;13.20;99.90;;;;;;5031380;28;20087;-62
2021/04/29 05:58:18;;;;;;;43.70;17.38;;;13.20;99.90;;;;;;5026235;28;20049;-63
2021/04/29 06:00:45;;;;;;;38.28;16.55;;;13.20;99.90;;;;;;5036052;28;20164;-63
2021/04/29 06:03:12;;;;;;;37.90;14.88;;;13.30;99.90;;;;;;5030788;28;20048;-63
2021/04/29 06:05:38;;;;;;;46.17;13.77;;;13.30;99.90;;;;;;5042485;28;20037;-61
2021/04/29 06:08:05;;;;;;;37.03;14.52;;;13.40;99.90;;;;;;5041702;28;20455;-61
2021/04/29 06:10:33;;;;;;;38.08;15.00;;;13.30;99.90;;;;;;5031448;28;20582;-61
2021/04/29 06:13:00;;;;;;;41.92;14.82;;;13.30;99.90;;;;;;5030463;28;20771;-61
2021/04/29 06:15:26;;;;;;;32.10;12.70;;;13.30;99.90;;;;;;5030659;28;20099;-62
2021/04/29 06:17:53;;;;;;;32.08;14.07;;;13.30;99.90;;;;;;5031390;28;20056;-62
2021/04/29 06:20:20;;;;;;;41.17;14.48;;;13.30;99.90;;;;;;5019758;28;20065;-62
2021/04/29 06:22:47;;;;;;;37.50;14.32;;;13.30;99.90;;;;;;5024144;28;20068;-62
2021/04/29 06:25:14;;;;;;;38.55;15.32;;;13.40;99.90;;;;;;5030878;28;20358;-62
2021/04/29 06:27:41;;;;;;;36.83;13.85;;;13.30;99.90;;;;;;5046835;28;20054;-62
2021/04/29 06:30:09;;;;;;;34.42;14.45;;;13.30;99.90;;;;;;5029051;28;20041;-62
2021/04/29 06:32:35;;;;;;;33.38;12.52;;;13.20;99.90;;;;;;5044660;28;20045;-62
2021/04/29 06:35:03;;;;;;;35.72;13.30;;;13.30;99.90;;;;;;5034695;28;20128;-62
2021/04/29 06:37:30;;;;;;;33.67;12.48;;;13.30;99.90;;;;;;5028959;28;20066;-62
2021/04/29 06:39:56;;;;;;;38.55;12.88;;;13.30;99.90;;;;;;5031450;28;20049;-62
2021/04/29 06:42:23;;;;;;;37.15;12.73;;;13.20;99.90;;;;;;5030633;28;20042;-61
2021/04/29 06:44:52;;;;;;;39.63;14.65;;;13.10;99.90;;;;;;5021133;28;20602;-61
2021/04/29 06:47:23;;;;;;;36.15;13.90;;;13.10;99.90;;;;;;5039780;28;20037;-61
2021/04/29 06:49:49;;;;;;;40.30;15.35;;;13.00;99.90;;;;;;5025934;28;20057;-62
2021/04/29 06:52:17;;;;;;;51.17;17.05;;;13.00;99.90;;;;;;5038694;28;20045;-62
2021/04/29 06:54:45;;;;;;;43.85;15.32;;;13.00;99.90;;;;;;5026971;28;20053;-62
2021/04/29 06:57:13;;;;;;;45.13;16.23;;;13.00;99.90;;;;;;5033168;28;20049;-62
2021/04/29 06:59:40;;;;;;;44.00;15.73;;;13.10;99.90;;;;;;5027966;28;20041;-62
2021/04/29 07:02:07;;;;;;;41.15;14.80;;;13.10;99.90;;;;;;5029637;28;20038;-62
2021/04/29 07:04:54;;;;;;;38.20;14.75;;;13.20;99.90;;;;;;5026635;28;20069;-62
2021/04/29 07:07:20;;;;;;;38.92;14.32;;;13.20;99.90;;;;;;5033550;28;20056;-62
2021/04/29 07:09:47;;;;;;;37.75;14.57;;;13.20;99.90;;;;;;5046430;28;20059;-62
2021/04/29 07:12:14;;;;;;;43.55;15.77;;;13.20;99.90;;;;;;5037540;28;20116;-62
2021/04/29 07:14:40;;;;;;;45.55;16.88;;;13.20;99.90;;;;;;5024121;28;20045;-62
2021/04/29 07:17:07;;;;;;;42.65;16.10;;;13.20;99.90;;;;;;5027070;28;20412;-62
2021/04/29 07:19:34;;;;;;;43.70;16.27;;;13.20;99.90;;;;;;5025664;28;20042;-62
2021/04/29 07:22:02;;;;;;;43.90;16.48;;;13.20;99.90;;;;;;5023048;28;20052;-62
2021/04/29 07:24:30;;;;;;;47.00;16.90;;;13.20;99.90;;;;;;5029217;28;20075;-61
2021/04/29 07:26:56;;;;;;;53.78;17.02;;;13.30;99.90;;;;;;5030374;28;20037;-61
2021/04/29 07:29:22;;;;;;;44.67;15.70;;;13.30;99.90;;;;;;5028694;28;20041;-61
2021/04/29 07:31:49;;;;;;;44.03;15.90;;;13.30;99.90;;;;;;5026526;28;20041;-62
2021/04/29 07:34:17;;;;;;;45.95;16.42;;;13.40;99.90;;;;;;5028491;28;20041;-62
2021/04/29 07:36:44;;;;;;;54.28;17.98;;;13.40;99.90;;;;;;5031403;28;20055;-62
2021/04/29 07:39:11;;;;;;;46.72;16.23;;;13.40;99.90;;;;;;5030909;28;20560;-62
2021/04/29 07:41:38;;;;;;;45.85;16.65;;;13.40;99.90;;;;;;5030267;28;20530;-62
2021/04/29 07:44:04;;;;;;;55.67;18.02;;;13.50;99.90;;;;;;5028960;28;20107;-62
2021/04/29 07:46:32;;;;;;;41.50;15.95;;;13.60;99.90;;;;;;5022182;28;20044;-62
2021/04/29 07:49:00;;;;;;;50.22;17.80;;;13.60;99.90;;;;;;5010577;28;20092;-62
2021/04/29 07:51:26;;;;;;;46.85;17.17;;;13.60;99.90;;;;;;5014417;28;20054;-61
2021/04/29 07:53:53;;;;;;;42.08;16.25;;;13.60;99.90;;;;;;5020600;28;20048;-62
2021/04/29 07:56:19;;;;;;;41.35;15.32;;;13.70;99.90;;;;;;5042445;28;20103;-62
2021/04/29 07:58:46;;;;;;;36.88;15.70;;;13.70;99.90;;;;;;5024488;28;20055;-61
2021/04/29 08:01:13;;;;;;;47.92;17.05;;;13.80;99.90;;;;;;5018435;28;20095;-62
2021/04/29 08:03:40;;;;;;;38.97;15.20;;;13.80;99.90;;;;;;5030434;28;20057;-62
2021/04/29 08:06:06;;;;;;;48.40;17.80;;;13.80;99.90;;;;;;5029184;28;20532;-62
2021/04/29 08:08:33;;;;;;;48.55;16.80;;;13.80;99.90;;;;;;5025754;28;20052;-59
2021/04/29 08:11:00;;;;;;;41.60;16.35;;;13.80;99.90;;;;;;5024663;28;20543;-60
2021/04/29 08:13:26;;;;;;;35.58;14.80;;;13.80;99.90;;;;;;5024341;28;20719;-61
2021/04/29 08:15:53;;;;;;;41.58;16.85;;;13.90;99.90;;;;;;5027199;28;20037;-61
2021/04/29 08:18:20;;;;;;;52.58;18.73;;;14.00;99.90;;;;;;5021032;28;20045;-61
2021/04/29 08:20:46;;;;;;;44.92;17.33;;;14.10;99.90;;;;;;5022986;28;20101;-62
2021/04/29 08:23:13;;;;;;;43.58;16.83;;;14.20;99.90;;;;;;5023164;28;20033;-62
2021/04/29 08:25:43;;;;;;;48.92;16.33;;;14.40;99.90;;;;;;5027281;28;20052;-61
2021/04/29 08:28:12;;;;;;;46.33;17.45;;;14.50;99.90;;;;;;5030856;28;20049;-61
2021/04/29 08:30:38;;;;;;;46.38;17.50;;;14.50;99.90;;;;;;5028938;28;20049;-62
2021/04/29 08:33:08;;;;;;;42.67;17.25;;;14.60;99.90;;;;;;5027103;28;20050;-61
2021/04/29 08:35:35;;;;;;;37.90;15.05;;;14.80;99.90;;;;;;5012790;28;20037;-61
2021/04/29 08:38:01;;;;;;;39.97;15.23;;;15.00;99.90;;;;;;5022978;28;20037;-63
2021/04/29 08:40:30;;;;;;;36.40;15.63;;;15.10;99.90;;;;;;5012247;28;20106;-62
2021/04/29 08:42:57;;;;;;;38.05;15.07;;;15.30;99.90;;;;;;5032512;28;20052;-61
2021/04/29 08:45:24;;;;;;;39.60;16.85;;;15.50;99.90;;;;;;5025050;28;20083;-61
2021/04/29 08:47:52;;;;;;;42.10;15.80;;;15.50;99.90;;;;;;5028679;28;20041;-60
2021/04/29 08:50:21;;;;;;;45.63;16.10;;;15.50;99.90;;;;;;5027161;28;20072;-60
2021/04/29 08:52:49;;;;;;;36.60;15.43;;;15.60;99.90;;;;;;5028146;28;20517;-60
2021/04/29 08:55:21;;;;;;;38.47;15.65;;;15.70;99.90;;;;;;5030179;28;20072;-61
2021/04/29 08:57:49;;;;;;;39.78;16.35;;;15.80;99.90;;;;;;5028598;28;20051;-61
2021/04/29 09:00:17;;;;;;;39.75;14.32;;;15.90;99.90;;;;;;5032192;28;20828;-62
2021/04/29 09:02:45;;;;;;;40.67;16.23;;;16.00;99.90;;;;;;5026779;28;20112;-62
2021/04/29 09:05:23;;;;;;;36.03;14.80;;;16.10;99.90;;;;;;5027228;28;20440;-60
2021/04/29 09:07:54;;;;;;;32.05;12.85;;;16.10;99.90;;;;;;5032236;28;20037;-60
2021/04/29 09:10:25;;;;;;;34.47;14.63;;;16.30;99.90;;;;;;5030740;28;20052;-62
2021/04/29 09:12:52;;;;;;;38.33;13.40;;;16.40;99.90;;;;;;5024867;28;20064;-62
2021/04/29 09:15:29;;;;;;;33.20;13.48;;;16.50;99.90;;;;;;5031307;28;20491;-61
2021/04/29 09:18:08;;;;;;;35.80;13.30;;;16.50;99.90;;;;;;5037717;28;20452;-60
2021/04/29 09:20:55;;;;;;;28.13;12.13;;;16.50;99.90;;;;;;5030747;28;20508;-60
2021/04/29 09:23:25;;;;;;;35.97;12.63;;;16.50;99.90;;;;;;5030715;28;20594;-60
2021/04/29 09:26:14;;;;;;;30.92;13.18;;;16.50;99.90;;;;;;5020325;28;20049;-59
2021/04/29 09:29:01;;;;;;;36.13;13.38;;;16.50;99.90;;;;;;5038822;28;20041;-61
2021/04/29 09:31:28;;;;;;;29.23;12.40;;;16.60;99.90;;;;;;5022705;28;20096;-61
2021/04/29 09:33:59;;;;;;;28.95;11.70;;;16.60;99.90;;;;;;5028904;28;20108;-60
2021/04/29 09:36:31;;;;;;;35.22;12.02;;;16.70;99.90;;;;;;5033067;28;20423;-61
2021/04/29 09:39:12;;;;;;;27.57;12.40;;;16.70;99.20;;;;;;5032075;28;20045;-61
2021/04/29 09:41:41;;;;;;;27.98;10.75;;;16.70;98.80;;;;;;5012884;28;20388;-61
2021/04/29 09:44:11;;;;;;;30.77;11.32;;;16.70;98.80;;;;;;5008384;28;20451;-61
2021/04/29 09:46:49;;;;;;;26.10;10.45;;;16.70;99.00;;;;;;5032428;28;20045;-61
2021/04/29 09:49:27;;;;;;;31.77;12.10;;;16.80;98.80;;;;;;5041843;28;20048;-61
2021/04/29 09:51:57;;;;;;;29.55;12.50;;;16.70;98.90;;;;;;5030424;28;20038;-60
2021/04/29 09:54:28;;;;;;;26.25;11.10;;;16.70;99.60;;;;;;5024544;28;20393;-60
2021/04/29 09:57:01;;;;;;;27.40;11.80;;;16.70;98.70;;;;;;5027862;28;20424;-60
2021/04/29 09:59:29;;;;;;;21.65;9.95;;;16.70;98.70;;;;;;5031503;28;20053;-62
2021/04/29 10:01:57;;;;;;;28.75;10.88;;;16.80;98.70;;;;;;5029609;28;20484;-62
2021/04/29 10:04:25;;;;;;;24.38;9.90;;;16.80;98.80;;;;;;5018857;28;20037;-60
2021/04/29 10:06:55;;;;;;;27.38;11.18;;;16.90;98.70;;;;;;5027867;28;20041;-60
2021/04/29 10:09:28;;;;;;;27.92;12.35;;;17.00;99.50;;;;;;5020708;28;20052;-60
2021/04/29 10:12:05;;;;;;;31.02;11.18;;;17.20;99.00;;;;;;5015199;28;20064;-60
2021/04/29 10:14:40;;;;;;;27.55;11.07;;;17.40;98.20;;;;;;5029443;28;20041;-60
2021/04/29 10:17:09;;;;;;;28.85;10.98;;;17.50;97.30;;;;;;5034442;28;20037;-61
2021/04/29 10:19:41;;;;;;;30.77;11.90;;;17.60;96.90;;;;;;5024448;28;20063;-62
2021/04/29 10:22:09;;;;;;;31.80;12.32;;;17.80;96.60;;;;;;5029892;28;20052;-61
2021/04/29 10:24:36;;;;;;;28.15;11.57;;;18.00;96.10;;;;;;5028133;28;20432;-61
2021/04/29 10:27:06;;;;;;;23.35;10.20;;;18.10;95.60;;;;;;5025976;28;20048;-61
2021/04/29 10:29:34;;;;;;;26.67;11.45;;;18.10;95.10;;;;;;5016592;28;20044;-61
2021/04/29 10:32:06;;;;;;;27.15;10.80;;;18.10;94.80;;;;;;5026695;28;20042;-61
2021/04/29 10:34:45;;;;;;;27.65;10.55;;;18.10;95.10;;;;;;5027129;28;20160;-61
2021/04/29 10:37:20;;;;;;;24.02;12.18;;;18.00;95.30;;;;;;5027338;28;20037;-61
2021/04/29 10:40:01;;;;;;;27.63;12.70;;;18.00;95.50;;;;;;5026228;28;20061;-61
2021/04/29 10:42:30;;;;;;;25.50;10.15;;;18.00;95.20;;;;;;5016177;28;20045;-61
2021/04/29 10:45:09;;;;;;;24.63;9.13;;;18.00;94.40;;;;;;5016431;28;20045;-59
2021/04/29 10:47:36;;;;;;;23.45;9.07;;;18.10;94.70;;;;;;5024320;28;20046;-60
2021/04/29 10:50:13;;;;;;;25.88;10.70;;;18.10;94.10;;;;;;5019620;28;20064;-60
2021/04/29 10:52:50;;;;;;;24.60;9.20;;;18.00;94.30;;;;;;5012238;28;20053;-60
2021/04/29 10:55:30;;;;;;;25.48;9.98;;;18.00;93.90;;;;;;5030217;28;20045;-60
2021/04/29 10:57:59;;;;;;;27.25;9.57;;;17.90;94.30;;;;;;5030406;28;20041;-59
2021/04/29 11:00:30;;;;;;;22.65;8.90;;;17.90;95.00;;;;;;5044747;28;20056;-59
2021/04/29 11:03:06;;;;;;;23.40;8.90;;;18.10;94.00;;;;;;5026709;28;20048;-60
2021/04/29 11:05:35;;;;;;;23.45;10.20;;;18.20;94.30;;;;;;5026166;28;20042;-60
2021/04/29 11:08:09;;;;;;;28.75;10.07;;;18.40;93.50;;;;;;5024203;28;20393;-60
2021/04/29 11:10:40;;;;;;;26.95;10.45;;;18.40;93.10;;;;;;5020789;28;20049;-62
2021/04/29 11:13:07;;;;;;;30.42;10.82;;;18.50;93.50;;;;;;5025958;28;20041;-61
2021/04/29 11:15:40;;;;;;;28.90;10.48;;;18.50;93.60;;;;;;5028689;28;20115;-62
2021/04/29 11:18:11;;;;;;;26.48;9.55;;;18.50;93.20;;;;;;5026187;28;20053;-62
2021/04/29 11:20:57;;;;;;;26.73;8.98;;;18.40;93.50;;;;;;5020448;28;20046;-60
2021/04/29 11:23:36;;;;;;;24.83;10.40;;;18.30;93.90;;;;;;5030959;28;20045;-60
2021/04/29 11:26:08;;;;;;;22.55;9.20;;;18.40;93.40;;;;;;5026315;28;20038;-60
2021/04/29 11:28:36;;;;;;;26.10;11.38;;;18.40;93.00;;;;;;5030381;28;20659;-60
2021/04/29 11:31:03;;;;;;;27.30;10.90;;;18.40;93.30;;;;;;5023192;28;20057;-60
2021/04/29 11:33:34;;;;;;;24.73;10.80;;;18.40;93.20;;;;;;5028874;28;20040;-61
2021/04/29 11:36:19;;;;;;;24.10;10.48;;;18.40;93.50;;;;;;5013216;28;20056;-60
2021/04/29 11:38:50;;;;;;;23.83;10.18;;;18.40;92.80;;;;;;5024301;28;20053;-60
2021/04/29 11:41:17;;;;;;;27.08;10.20;;;18.50;92.50;;;;;;5031740;28;20045;-60
2021/04/29 11:43:43;;;;;;;25.05;10.73;;;18.50;92.20;;;;;;5027674;28;20043;-60
2021/04/29 11:46:21;;;;;;;31.88;11.38;;;18.50;92.70;;;;;;5018852;28;20065;-60
2021/04/29 11:48:58;;;;;;;27.73;11.32;;;18.50;93.00;;;;;;5025336;28;20061;-60
2021/04/29 11:51:29;;;;;;;26.75;10.52;;;18.70;92.10;;;;;;5022838;28;20045;-60
2021/04/29 11:54:07;;;;;;;24.93;10.47;;;18.80;92.60;;;;;;5028318;28;20060;-60
2021/04/29 11:56:42;;;;;;;27.25;11.98;;;18.90;91.70;;;;;;5018591;28;20099;-61
2021/04/29 11:59:13;;;;;;;42.83;13.38;;;19.00;91.60;;;;;;5027496;28;20128;-61
2021/04/29 12:01:41;;;;;;;25.05;10.80;;;19.10;91.70;;;;;;5025613;28;20091;-61
2021/04/29 12:04:19;;;;;;;30.15;11.88;;;19.10;91.50;;;;;;5026912;28;20037;-60
2021/04/29 12:06:48;;;;;;;27.65;11.45;;;19.00;91.50;;;;;;5018392;28;20042;-62
2021/04/29 12:09:15;;;;;;;27.98;10.55;;;19.00;91.40;;;;;;5025166;28;20045;-60
2021/04/29 12:11:56;;;;;;;26.55;10.63;;;19.00;91.40;;;;;;5025294;28;20045;-60
2021/04/29 12:14:27;;;;;;;29.58;12.25;;;19.00;91.40;;;;;;5024568;28;20098;-60
2021/04/29 12:17:01;;;;;;;28.50;11.70;;;18.90;91.50;;;;;;5022918;28;20117;-60
2021/04/29 12:19:30;;;;;;;26.85;11.05;;;18.90;91.70;;;;;;5013362;28;20136;-61
2021/04/29 12:21:58;;;;;;;25.60;11.02;;;18.90;92.10;;;;;;5028270;28;20099;-60
2021/04/29 12:24:28;;;;;;;28.25;10.77;;;18.90;91.90;;;;;;5025323;28;20480;-60
2021/04/29 12:26:55;;;;;;;28.50;11.82;;;18.90;92.00;;;;;;5024250;28;20065;-61
2021/04/29 12:29:22;;;;;;;26.27;11.15;;;18.90;91.50;;;;;;5017864;28;20056;-61
2021/04/29 12:32:01;;;;;;;21.83;10.75;;;19.00;91.50;;;;;;5029356;28;20073;-61
2021/04/29 12:34:28;;;;;;;24.92;10.75;;;19.10;91.40;;;;;;5027020;28;20050;-61
2021/04/29 12:36:59;;;;;;;26.02;10.52;;;19.30;91.80;;;;;;5030827;28;20384;-61